createdAt,value
2018-07-13T00:00:02.077Z,0.00
2018-07-13T00:01:02.258Z,0.00
2018-07-13T00:02:02.435Z,0.00
2018-07-13T00:03:02.609Z,0.00
2018-07-13T00:04:02.790Z,0.00
2018-07-13T00:05:02.982Z,0.00
2018-07-13T00:06:03.163Z,0.00
2018-07-13T00:07:03.337Z,0.00
2018-07-13T00:08:03.516Z,0.00
2018-07-13T00:09:03.692Z,0.00
2018-07-13T00:10:03.881Z,0.00
2018-07-13T00:11:04.058Z,0.00
2018-07-13T00:12:04.235Z,0.00
2018-07-13T00:13:04.412Z,0.00
2018-07-13T00:14:04.588Z,0.00
2018-07-13T00:15:04.771Z,0.00
2018-07-13T00:16:04.945Z,0.00
2018-07-13T00:17:05.137Z,0.00
2018-07-13T00:18:05.315Z,0.00
2018-07-13T00:19:05.487Z,0.00
2018-07-13T00:20:05.673Z,0.00
2018-07-13T00:21:05.851Z,0.00
2018-07-13T00:22:06.033Z,0.00
2018-07-13T00:23:06.217Z,0.00
2018-07-13T00:24:06.398Z,0.00
2018-07-13T00:25:06.582Z,0.00
2018-07-13T00:26:06.759Z,0.00
2018-07-13T00:27:06.946Z,0.00
2018-07-13T00:28:07.144Z,0.00
2018-07-13T00:29:07.313Z,0.00
2018-07-13T00:30:07.499Z,0.00
2018-07-13T00:31:07.673Z,0.00
2018-07-13T00:32:07.856Z,0.00
2018-07-13T00:33:08.058Z,0.00
2018-07-13T00:34:08.243Z,0.00
2018-07-13T00:35:08.423Z,0.00
2018-07-13T00:36:08.600Z,0.00
2018-07-13T00:37:08.777Z,0.00
2018-07-13T00:38:08.955Z,0.00
2018-07-13T00:39:09.129Z,0.00
2018-07-13T00:40:09.310Z,0.00
2018-07-13T00:41:09.498Z,0.00
2018-07-13T00:42:09.673Z,0.00
2018-07-13T00:43:09.850Z,0.00
2018-07-13T00:44:10.029Z,0.00
2018-07-13T00:45:10.211Z,0.00
2018-07-13T00:46:10.391Z,0.00
2018-07-13T00:47:10.573Z,0.00
2018-07-13T00:48:10.753Z,0.00
2018-07-13T00:49:10.927Z,0.00
2018-07-13T00:50:11.110Z,0.00
2018-07-13T00:51:11.287Z,0.00
2018-07-13T00:52:11.466Z,0.00
2018-07-13T00:53:11.644Z,0.00
2018-07-13T00:54:11.823Z,0.00
2018-07-13T00:55:12.012Z,0.00
2018-07-13T00:56:12.195Z,0.00
2018-07-13T00:57:12.380Z,0.00
2018-07-13T00:58:12.558Z,0.00
2018-07-13T00:59:12.735Z,0.00
2018-07-13T01:00:12.919Z,0.00
2018-07-13T01:01:13.095Z,0.00
2018-07-13T01:02:13.284Z,0.00
2018-07-13T01:03:13.464Z,0.00
2018-07-13T01:04:13.643Z,0.00
2018-07-13T01:05:13.819Z,0.00
2018-07-13T01:06:13.999Z,0.00
2018-07-13T01:07:14.185Z,0.00
2018-07-13T01:08:14.365Z,0.00
2018-07-13T01:09:14.537Z,0.00
2018-07-13T01:10:14.714Z,0.00
2018-07-13T01:11:14.899Z,0.00
2018-07-13T01:12:15.072Z,0.00
2018-07-13T01:13:15.256Z,0.00
2018-07-13T01:14:15.434Z,0.00
2018-07-13T01:15:15.615Z,0.00
2018-07-13T01:16:15.799Z,0.00
2018-07-13T01:17:15.974Z,0.00
2018-07-13T01:18:16.155Z,0.00
2018-07-13T01:19:16.334Z,0.00
2018-07-13T01:20:16.509Z,0.00
2018-07-13T01:21:16.688Z,0.00
2018-07-13T01:22:16.880Z,0.00
2018-07-13T01:23:17.067Z,0.00
2018-07-13T01:24:17.242Z,0.00
2018-07-13T01:25:17.417Z,0.00
2018-07-13T01:26:17.594Z,0.00
2018-07-13T01:27:17.778Z,0.00
2018-07-13T01:28:17.956Z,0.00
2018-07-13T01:29:18.140Z,0.00
2018-07-13T01:30:18.322Z,0.00
2018-07-13T01:31:18.500Z,0.00
2018-07-13T01:32:18.677Z,0.00
2018-07-13T01:33:18.852Z,0.00
2018-07-13T01:34:19.044Z,0.00
2018-07-13T01:35:19.225Z,0.00
2018-07-13T01:36:19.406Z,0.00
2018-07-13T01:37:19.583Z,0.00
2018-07-13T01:38:19.762Z,0.00
2018-07-13T01:39:19.950Z,0.00
2018-07-13T01:40:20.144Z,0.00
2018-07-13T01:41:20.315Z,0.00
2018-07-13T01:42:20.507Z,0.00
2018-07-13T01:43:20.688Z,0.00
2018-07-13T01:44:20.868Z,0.00
2018-07-13T01:45:21.042Z,0.00
2018-07-13T01:46:21.219Z,0.00
2018-07-13T01:47:21.398Z,0.00
2018-07-13T01:48:21.581Z,0.00
2018-07-13T01:49:21.766Z,0.00
2018-07-13T01:50:21.941Z,0.00
2018-07-13T01:51:22.134Z,0.00
2018-07-13T01:52:22.326Z,0.00
2018-07-13T01:53:22.512Z,0.00
2018-07-13T01:54:22.691Z,0.00
2018-07-13T01:55:22.869Z,0.00
2018-07-13T01:56:23.045Z,0.00
2018-07-13T01:57:23.223Z,0.00
2018-07-13T01:58:23.407Z,0.00
2018-07-13T01:59:23.584Z,0.00
2018-07-13T02:00:23.763Z,0.00
2018-07-13T02:01:23.936Z,0.00
2018-07-13T02:02:24.115Z,0.00
2018-07-13T02:03:24.296Z,0.00
2018-07-13T02:04:24.479Z,0.00
2018-07-13T02:05:24.652Z,0.00
2018-07-13T02:06:24.837Z,0.00
2018-07-13T02:07:25.018Z,0.00
2018-07-13T02:08:25.192Z,0.00
2018-07-13T02:09:25.379Z,0.00
2018-07-13T02:10:25.558Z,0.00
2018-07-13T02:11:25.743Z,0.00
2018-07-13T02:12:25.913Z,0.00
2018-07-13T02:13:26.086Z,0.00
2018-07-13T02:14:26.279Z,0.00
2018-07-13T02:15:26.456Z,0.00
2018-07-13T02:16:26.638Z,0.00
2018-07-13T02:17:26.815Z,0.00
2018-07-13T02:18:26.992Z,0.00
2018-07-13T02:19:27.175Z,0.00
2018-07-13T02:20:27.352Z,0.00
2018-07-13T02:21:27.527Z,0.00
2018-07-13T02:22:27.708Z,0.00
2018-07-13T02:23:27.887Z,0.00
2018-07-13T02:24:28.073Z,0.00
2018-07-13T02:25:28.243Z,0.00
2018-07-13T02:26:28.425Z,0.00
2018-07-13T02:27:28.612Z,0.00
2018-07-13T02:28:28.791Z,0.00
2018-07-13T02:29:28.977Z,0.00
2018-07-13T02:30:29.152Z,0.00
2018-07-13T02:31:29.333Z,0.00
2018-07-13T02:32:29.520Z,0.00
2018-07-13T02:33:29.694Z,0.00
2018-07-13T02:34:29.876Z,0.00
2018-07-13T02:35:30.058Z,0.00
2018-07-13T02:36:30.237Z,0.00
2018-07-13T02:37:30.436Z,0.00
2018-07-13T02:38:30.601Z,0.00
2018-07-13T02:39:30.788Z,0.00
2018-07-13T02:40:30.961Z,0.00
2018-07-13T02:41:31.163Z,0.00
2018-07-13T02:42:31.332Z,0.00
2018-07-13T02:43:31.517Z,0.00
2018-07-13T02:44:31.704Z,0.00
2018-07-13T02:45:31.881Z,0.00
2018-07-13T02:46:32.058Z,0.00
2018-07-13T02:47:32.232Z,0.00
2018-07-13T02:48:32.419Z,4.00
2018-07-13T02:49:32.592Z,4.00
2018-07-13T02:50:32.773Z,4.00
2018-07-13T02:51:32.955Z,0.00
2018-07-13T02:52:33.132Z,4.00
2018-07-13T02:53:33.307Z,4.00
2018-07-13T02:54:33.486Z,8.00
2018-07-13T02:55:33.665Z,4.00
2018-07-13T02:56:33.840Z,8.00
2018-07-13T02:57:34.020Z,4.00
2018-07-13T02:58:34.199Z,8.00
2018-07-13T02:59:34.383Z,8.00
2018-07-13T03:00:34.561Z,8.00
2018-07-13T03:01:34.740Z,12.00
2018-07-13T03:02:34.923Z,16.00
2018-07-13T03:03:35.104Z,16.00
2018-07-13T03:04:35.282Z,20.00
2018-07-13T03:05:35.459Z,20.00
2018-07-13T03:06:35.638Z,24.00
2018-07-13T03:07:35.827Z,24.00
2018-07-13T03:08:36.014Z,28.00
2018-07-13T03:09:36.205Z,32.00
2018-07-13T03:10:36.382Z,36.00
2018-07-13T03:11:36.571Z,40.00
2018-07-13T03:12:36.758Z,44.00
2018-07-13T03:13:36.933Z,48.00
2018-07-13T03:14:37.113Z,56.00
2018-07-13T03:15:37.291Z,64.00
2018-07-13T03:16:37.481Z,68.00
2018-07-13T03:17:37.658Z,76.00
2018-07-13T03:18:37.832Z,84.00
2018-07-13T03:19:38.011Z,92.00
2018-07-13T03:20:38.201Z,96.00
2018-07-13T03:21:38.392Z,108.00
2018-07-13T03:22:38.582Z,112.00
2018-07-13T03:23:38.769Z,120.00
2018-07-13T03:24:38.962Z,136.00
2018-07-13T03:25:39.141Z,144.00
2018-07-13T03:26:39.330Z,152.00
2018-07-13T03:27:39.519Z,160.00
2018-07-13T03:28:39.688Z,176.00
2018-07-13T03:29:39.869Z,188.00
2018-07-13T03:30:40.055Z,200.00
2018-07-13T03:31:40.232Z,208.00
2018-07-13T03:32:40.407Z,224.00
2018-07-13T03:33:40.585Z,232.00
2018-07-13T03:34:40.764Z,244.00
2018-07-13T03:35:40.941Z,260.00
2018-07-13T03:36:41.136Z,272.00
2018-07-13T03:37:41.315Z,288.00
2018-07-13T03:38:41.486Z,304.00
2018-07-13T03:39:41.665Z,320.00
2018-07-13T03:40:41.842Z,336.00
2018-07-13T03:41:42.033Z,352.00
2018-07-13T03:42:42.208Z,368.00
2018-07-13T03:43:42.397Z,384.00
2018-07-13T03:44:42.579Z,404.00
2018-07-13T03:45:42.780Z,424.00
2018-07-13T03:46:42.951Z,444.00
2018-07-13T03:47:43.131Z,468.00
2018-07-13T03:48:43.313Z,492.00
2018-07-13T03:49:43.500Z,512.00
2018-07-13T03:50:43.676Z,540.00
2018-07-13T03:51:43.856Z,568.00
2018-07-13T03:52:44.042Z,596.00
2018-07-13T03:53:44.219Z,624.00
2018-07-13T03:54:44.404Z,652.00
2018-07-13T03:55:44.579Z,684.00
2018-07-13T03:56:44.767Z,720.00
2018-07-13T03:57:44.948Z,752.00
2018-07-13T03:58:45.121Z,788.00
2018-07-13T03:59:45.304Z,824.00
2018-07-13T04:00:45.483Z,860.00
2018-07-13T04:01:45.662Z,896.00
2018-07-13T04:02:45.841Z,936.00
2018-07-13T04:03:46.037Z,976.00
2018-07-13T04:04:46.221Z,1012.00
2018-07-13T04:05:46.395Z,1052.00
2018-07-13T04:06:46.588Z,1092.00
2018-07-13T04:07:46.770Z,1128.00
2018-07-13T04:08:46.943Z,1168.00
2018-07-13T04:09:47.132Z,1216.00
2018-07-13T04:10:47.321Z,1260.00
2018-07-13T04:11:47.503Z,1300.00
2018-07-13T04:12:47.680Z,1344.00
2018-07-13T04:13:47.864Z,1388.00
2018-07-13T04:14:48.113Z,1428.00
2018-07-13T04:15:48.220Z,1472.00
2018-07-13T04:16:48.401Z,1512.00
2018-07-13T04:17:48.579Z,1556.00
2018-07-13T04:18:48.757Z,1596.00
2018-07-13T04:19:51.136Z,1644.00
2018-07-13T04:20:49.111Z,1692.00
2018-07-13T04:21:49.305Z,1740.00
2018-07-13T04:22:49.486Z,1788.00
2018-07-13T04:23:49.676Z,1832.00
2018-07-13T04:24:49.864Z,1884.00
2018-07-13T04:25:50.034Z,1932.00
2018-07-13T04:26:50.212Z,1984.00
2018-07-13T04:27:50.398Z,2036.00
2018-07-13T04:28:50.601Z,2092.00
2018-07-13T04:29:50.782Z,2140.00
2018-07-13T04:30:50.973Z,2192.00
2018-07-13T04:31:51.146Z,2232.00
2018-07-13T04:32:51.327Z,2268.00
2018-07-13T04:33:51.665Z,2300.00
2018-07-13T04:34:54.707Z,2320.00
2018-07-13T04:35:54.637Z,2344.00
2018-07-13T04:36:52.152Z,2384.00
2018-07-13T04:37:52.989Z,2428.00
2018-07-13T04:38:52.467Z,2472.00
2018-07-13T04:39:52.657Z,2544.00
2018-07-13T04:40:52.900Z,2624.00
2018-07-13T04:41:53.017Z,2692.00
2018-07-13T04:42:53.204Z,2744.00
2018-07-13T04:43:53.411Z,2800.00
2018-07-13T04:44:53.587Z,2848.00
2018-07-13T04:45:53.813Z,2896.00
2018-07-13T04:46:53.987Z,2940.00
2018-07-13T04:47:54.191Z,2976.00
2018-07-13T04:48:54.376Z,3020.00
2018-07-13T04:49:54.569Z,3076.00
2018-07-13T04:50:54.746Z,3144.00
2018-07-13T04:51:54.928Z,3188.00
2018-07-13T04:52:55.115Z,3248.00
2018-07-13T04:53:55.283Z,3312.00
2018-07-13T04:54:55.546Z,3360.00
2018-07-13T04:55:55.559Z,3412.00
2018-07-13T04:56:55.736Z,3484.00
2018-07-13T04:57:55.914Z,3552.00
2018-07-13T04:58:56.089Z,3632.00
2018-07-13T04:59:56.264Z,3744.00
2018-07-13T05:00:56.458Z,3904.00
2018-07-13T05:01:56.730Z,4048.00
2018-07-13T05:02:56.835Z,4156.00
2018-07-13T05:03:57.025Z,4268.00
2018-07-13T05:04:57.201Z,4344.00
2018-07-13T05:05:57.398Z,4424.00
2018-07-13T05:06:57.582Z,4500.00
2018-07-13T05:07:59.170Z,4544.00
2018-07-13T05:09:00.257Z,4568.00
2018-07-13T05:09:58.083Z,4592.00
2018-07-13T05:10:58.274Z,4612.00
2018-07-13T05:11:58.468Z,4620.00
2018-07-13T05:12:58.665Z,4608.00
2018-07-13T05:13:58.893Z,4612.00
2018-07-13T05:14:59.060Z,4612.00
2018-07-13T05:15:59.249Z,4620.00
2018-07-13T05:16:59.449Z,4608.00
2018-07-13T05:17:59.626Z,4616.00
2018-07-13T05:18:59.818Z,4640.00
2018-07-13T05:19:59.989Z,4652.00
2018-07-13T05:21:00.202Z,4656.00
2018-07-13T05:22:00.374Z,4684.00
2018-07-13T05:23:00.966Z,4716.00
2018-07-13T05:24:01.201Z,4768.00
2018-07-13T05:25:01.587Z,4800.00
2018-07-13T05:26:01.434Z,4840.00
2018-07-13T05:27:01.407Z,4896.00
2018-07-13T05:28:01.509Z,4944.00
2018-07-13T05:29:02.175Z,4976.00
2018-07-13T05:30:02.078Z,5020.00
2018-07-13T05:31:02.216Z,5048.00
2018-07-13T05:32:02.372Z,5104.00
2018-07-13T05:33:02.720Z,5164.00
2018-07-13T05:34:02.564Z,5224.00
2018-07-13T05:35:02.966Z,5260.00
2018-07-13T05:36:02.979Z,5324.00
2018-07-13T05:37:03.377Z,5352.00
2018-07-13T05:38:03.380Z,5380.00
2018-07-13T05:39:03.689Z,5396.00
2018-07-13T05:40:03.739Z,5416.00
2018-07-13T05:41:03.761Z,5416.00
2018-07-13T05:42:03.950Z,5384.00
2018-07-13T05:43:04.068Z,5404.00
2018-07-13T05:44:04.424Z,5424.00
2018-07-13T05:45:04.297Z,5440.00
2018-07-13T05:46:04.511Z,5472.00
2018-07-13T05:47:04.600Z,5476.00
2018-07-13T05:48:04.941Z,5492.00
2018-07-13T05:49:04.970Z,5520.00
2018-07-13T05:50:05.138Z,5532.00
2018-07-13T05:51:05.335Z,5580.00
2018-07-13T05:52:05.057Z,5636.00
2018-07-13T05:53:05.248Z,5708.00
2018-07-13T05:54:05.432Z,5832.00
2018-07-13T05:55:05.617Z,5980.00
2018-07-13T05:56:05.808Z,6088.00
2018-07-13T05:57:06.048Z,6180.00
2018-07-13T05:58:06.107Z,6268.00
2018-07-13T05:59:06.290Z,6344.00
2018-07-13T06:00:06.480Z,6440.00
2018-07-13T06:01:06.662Z,6524.00
2018-07-13T06:02:06.852Z,6596.00
2018-07-13T06:03:07.492Z,6696.00
2018-07-13T06:04:07.160Z,6780.00
2018-07-13T06:05:07.346Z,6888.00
2018-07-13T06:06:07.520Z,7020.00
2018-07-13T06:07:07.705Z,7212.00
2018-07-13T06:08:07.888Z,7412.00
2018-07-13T06:09:08.072Z,7588.00
2018-07-13T06:10:08.260Z,7736.00
2018-07-13T06:11:08.442Z,7876.00
2018-07-13T06:12:08.622Z,8000.00
2018-07-13T06:13:08.804Z,8232.00
2018-07-13T06:14:08.993Z,8692.00
2018-07-13T06:15:09.223Z,13120.00
2018-07-13T06:16:09.358Z,42176.00
2018-07-13T06:17:09.547Z,75936.00
2018-07-13T06:18:09.736Z,93120.00
2018-07-13T06:19:09.929Z,96800.00
2018-07-13T06:20:10.119Z,97024.00
2018-07-13T06:21:10.305Z,96896.00
2018-07-13T06:22:10.489Z,97696.00
2018-07-13T06:23:10.686Z,98720.00
2018-07-13T06:24:10.893Z,99904.00
2018-07-13T06:25:11.078Z,100288.00
2018-07-13T06:26:11.263Z,98912.00
2018-07-13T06:27:11.448Z,98624.00
2018-07-13T06:28:11.633Z,97888.00
2018-07-13T06:29:11.838Z,99520.00
2018-07-13T06:30:12.033Z,101024.00
2018-07-13T06:31:12.379Z,101696.00
2018-07-13T06:32:12.342Z,100256.00
2018-07-13T06:33:12.543Z,100000.00
2018-07-13T06:34:12.745Z,98016.00
2018-07-13T06:35:12.939Z,97472.00
2018-07-13T06:36:13.288Z,96928.00
2018-07-13T06:37:13.422Z,98656.00
2018-07-13T06:38:13.491Z,100320.00
2018-07-13T06:39:13.712Z,100640.00
2018-07-13T06:40:13.819Z,100704.00
2018-07-13T06:41:14.392Z,101888.00
2018-07-13T06:42:14.150Z,100384.00
2018-07-13T06:43:14.501Z,100672.00
2018-07-13T06:44:14.609Z,99904.00
2018-07-13T06:45:14.828Z,98944.00
2018-07-13T06:46:15.046Z,98208.00
2018-07-13T06:47:15.243Z,98400.00
2018-07-13T06:48:17.183Z,99200.00
2018-07-13T06:49:15.635Z,97376.00
2018-07-13T06:50:15.850Z,96928.00
2018-07-13T06:51:16.047Z,98720.00
2018-07-13T06:52:16.260Z,98592.00
2018-07-13T06:53:16.447Z,99680.00
2018-07-13T06:54:16.640Z,100512.00
2018-07-13T06:55:17.112Z,100864.00
2018-07-13T06:56:17.029Z,100416.00
2018-07-13T06:57:17.241Z,101248.00
2018-07-13T06:58:17.440Z,100896.00
2018-07-13T06:59:18.089Z,101888.00
2018-07-13T07:00:17.953Z,103104.00
2018-07-13T07:01:18.025Z,102944.00
2018-07-13T07:02:18.231Z,103360.00
2018-07-13T07:03:18.429Z,101184.00
2018-07-13T07:04:18.975Z,101664.00
2018-07-13T07:05:18.899Z,102336.00
2018-07-13T07:06:18.962Z,101344.00
2018-07-13T07:07:19.799Z,102080.00
2018-07-13T07:08:20.143Z,103072.00
2018-07-13T07:09:20.177Z,103968.00
2018-07-13T07:10:20.547Z,104608.00
2018-07-13T07:11:21.061Z,104160.00
2018-07-13T07:12:20.187Z,106688.00
2018-07-13T07:13:20.380Z,106336.00
2018-07-13T07:14:20.570Z,105760.00
2018-07-13T07:15:20.791Z,105504.00
2018-07-13T07:16:22.200Z,105504.00
2018-07-13T07:17:21.252Z,104096.00
2018-07-13T07:18:21.332Z,105120.00
2018-07-13T07:19:21.537Z,106752.00
2018-07-13T07:20:21.740Z,106400.00
2018-07-13T07:21:21.989Z,106592.00
2018-07-13T07:22:22.053Z,105952.00
2018-07-13T07:23:22.266Z,107392.00
2018-07-13T07:24:22.530Z,107904.00
2018-07-13T07:25:22.670Z,106528.00
2018-07-13T07:26:22.871Z,105792.00
2018-07-13T07:27:23.089Z,103264.00
2018-07-13T07:28:23.299Z,104224.00
2018-07-13T07:29:23.497Z,107232.00
2018-07-13T07:30:24.038Z,108192.00
2018-07-13T07:31:23.888Z,106848.00
2018-07-13T07:32:24.406Z,104128.00
2018-07-13T07:33:24.273Z,102176.00
2018-07-13T07:34:24.796Z,105248.00
2018-07-13T07:35:25.089Z,105920.00
2018-07-13T07:36:25.188Z,106304.00
2018-07-13T07:37:24.901Z,107488.00
2018-07-13T07:38:25.116Z,106528.00
2018-07-13T07:39:25.330Z,104992.00
2018-07-13T07:40:25.539Z,107648.00
2018-07-13T07:41:27.185Z,108160.00
2018-07-13T07:42:27.077Z,106816.00
2018-07-13T07:43:26.114Z,108608.00
2018-07-13T07:44:26.370Z,107936.00
2018-07-13T07:45:26.578Z,106752.00
2018-07-13T07:46:26.803Z,101472.00
2018-07-13T07:47:26.998Z,94080.00
2018-07-13T07:48:27.213Z,93120.00
2018-07-13T07:49:27.414Z,98912.00
2018-07-13T07:50:27.616Z,104416.00
2018-07-13T07:51:27.824Z,105600.00
2018-07-13T07:52:28.009Z,108480.00
2018-07-13T07:53:28.530Z,109664.00
2018-07-13T07:54:28.681Z,112256.00
2018-07-13T07:55:29.452Z,114336.00
2018-07-13T07:56:30.483Z,111392.00
2018-07-13T07:57:29.974Z,110272.00
2018-07-13T07:58:30.386Z,111328.00
2018-07-13T07:59:31.379Z,111200.00
2018-07-13T08:00:29.628Z,112768.00
2018-07-13T08:01:29.704Z,109824.00
2018-07-13T08:02:31.240Z,107872.00
2018-07-13T08:03:30.657Z,108064.00
2018-07-13T08:04:30.293Z,106496.00
2018-07-13T08:05:30.548Z,106016.00
2018-07-13T08:06:32.266Z,107744.00
2018-07-13T08:07:32.774Z,109920.00
2018-07-13T08:08:33.233Z,108064.00
2018-07-13T08:09:33.001Z,108224.00
2018-07-13T08:10:32.672Z,107808.00
2018-07-13T08:11:33.167Z,107584.00
2018-07-13T08:12:32.461Z,108544.00
2018-07-13T08:13:33.016Z,109056.00
2018-07-13T08:14:33.750Z,110208.00
2018-07-13T08:15:33.118Z,108320.00
2018-07-13T08:16:34.436Z,109344.00
2018-07-13T08:17:33.389Z,106496.00
2018-07-13T08:18:33.990Z,106688.00
2018-07-13T08:19:34.191Z,109504.00
2018-07-13T08:20:34.142Z,109184.00
2018-07-13T08:21:33.484Z,108128.00
2018-07-13T08:22:34.536Z,109216.00
2018-07-13T08:23:33.755Z,108864.00
2018-07-13T08:24:34.702Z,107008.00
2018-07-13T08:25:34.371Z,103744.00
2018-07-13T08:26:35.180Z,104352.00
2018-07-13T08:27:35.394Z,106368.00
2018-07-13T08:28:35.695Z,105120.00
2018-07-13T08:29:35.248Z,108320.00
2018-07-13T08:30:35.823Z,109920.00
2018-07-13T08:31:36.594Z,108512.00
2018-07-13T08:32:36.327Z,107072.00
2018-07-13T08:33:36.383Z,104960.00
2018-07-13T08:34:35.806Z,103456.00
2018-07-13T08:35:36.009Z,102816.00
2018-07-13T08:36:37.374Z,103520.00
2018-07-13T08:37:37.980Z,102016.00
2018-07-13T08:38:36.542Z,100768.00
2018-07-13T08:39:36.749Z,100096.00
2018-07-13T08:40:37.123Z,98304.00
2018-07-13T08:41:37.207Z,99808.00
2018-07-13T08:42:37.409Z,97344.00
2018-07-13T08:43:37.604Z,97568.00
2018-07-13T08:44:38.171Z,95776.00
2018-07-13T08:45:38.447Z,94528.00
2018-07-13T08:46:38.127Z,92352.00
2018-07-13T08:47:38.324Z,93344.00
2018-07-13T08:48:38.518Z,94880.00
2018-07-13T08:49:38.726Z,97760.00
2018-07-13T08:50:38.920Z,98048.00
2018-07-13T08:51:39.129Z,92480.00
2018-07-13T08:52:39.356Z,71264.00
2018-07-13T08:53:39.791Z,59552.00
2018-07-13T08:54:42.885Z,43072.00
2018-07-13T08:55:41.088Z,34304.00
2018-07-13T08:56:40.341Z,32160.00
2018-07-13T08:57:40.556Z,31680.00
2018-07-13T08:58:40.713Z,31744.00
2018-07-13T08:59:40.844Z,32672.00
2018-07-13T09:00:41.011Z,32480.00
2018-07-13T09:01:41.956Z,32768.00
2018-07-13T09:02:41.486Z,32896.00
2018-07-13T09:03:41.834Z,32640.00
2018-07-13T09:04:41.980Z,32672.00
2018-07-13T09:05:41.993Z,33376.00
2018-07-13T09:06:42.237Z,33664.00
2018-07-13T09:07:42.177Z,32544.00
2018-07-13T09:08:42.955Z,31872.00
2018-07-13T09:09:42.778Z,31808.00
2018-07-13T09:10:43.059Z,31648.00
2018-07-13T09:11:43.078Z,31872.00
2018-07-13T09:12:43.307Z,31616.00
2018-07-13T09:13:43.619Z,31008.00
2018-07-13T09:14:43.921Z,30848.00
2018-07-13T09:15:44.795Z,30976.00
2018-07-13T09:16:44.112Z,30720.00
2018-07-13T09:17:44.975Z,30304.00
2018-07-13T09:18:44.340Z,29952.00
2018-07-13T09:19:44.582Z,29664.00
2018-07-13T09:20:47.129Z,30112.00
2018-07-13T09:21:44.576Z,30240.00
2018-07-13T09:22:44.772Z,30816.00
2018-07-13T09:23:44.999Z,32000.00
2018-07-13T09:24:45.189Z,33888.00
2018-07-13T09:25:45.388Z,35296.00
2018-07-13T09:26:45.574Z,37024.00
2018-07-13T09:27:45.765Z,39264.00
2018-07-13T09:28:45.967Z,40064.00
2018-07-13T09:29:46.166Z,41952.00
2018-07-13T09:30:46.396Z,45120.00
2018-07-13T09:31:46.792Z,54368.00
2018-07-13T09:32:46.762Z,66944.00
2018-07-13T09:33:46.972Z,80928.00
2018-07-13T09:34:47.209Z,92512.00
2018-07-13T09:35:47.486Z,92000.00
2018-07-13T09:36:47.625Z,83200.00
2018-07-13T09:37:47.715Z,80448.00
2018-07-13T09:38:47.934Z,81216.00
2018-07-13T09:39:48.414Z,78592.00
2018-07-13T09:40:48.376Z,67776.00
2018-07-13T09:41:48.614Z,57184.00
2018-07-13T09:42:48.832Z,48000.00
2018-07-13T09:43:53.415Z,45312.00
2018-07-13T09:44:49.591Z,48352.00
2018-07-13T09:45:50.185Z,49024.00
2018-07-13T09:46:49.894Z,46624.00
2018-07-13T09:47:49.949Z,44768.00
2018-07-13T09:48:50.085Z,43424.00
2018-07-13T09:49:50.287Z,41760.00
2018-07-13T09:50:50.488Z,42176.00
2018-07-13T09:51:50.586Z,44128.00
2018-07-13T09:52:50.921Z,44768.00
2018-07-13T09:53:50.960Z,44448.00
2018-07-13T09:54:51.166Z,41952.00
2018-07-13T09:55:51.436Z,39232.00
2018-07-13T09:56:51.588Z,37472.00
2018-07-13T09:57:51.874Z,36736.00
2018-07-13T09:58:51.904Z,35456.00
2018-07-13T09:59:52.098Z,32928.00
2018-07-13T10:00:52.201Z,34272.00
2018-07-13T10:01:52.374Z,34528.00
2018-07-13T10:02:52.611Z,34784.00
2018-07-13T10:03:52.801Z,32160.00
2018-07-13T10:04:53.014Z,23392.00
2018-07-13T10:05:53.201Z,14400.00
2018-07-13T10:06:53.392Z,10908.00
2018-07-13T10:07:53.596Z,9892.00
2018-07-13T10:08:53.790Z,9708.00
2018-07-13T10:09:53.997Z,9584.00
2018-07-13T10:10:54.193Z,9448.00
2018-07-13T10:11:54.402Z,9300.00
2018-07-13T10:12:54.592Z,9184.00
2018-07-13T10:13:54.790Z,9148.00
2018-07-13T10:14:54.975Z,9032.00
2018-07-13T10:15:55.170Z,8940.00
2018-07-13T10:16:55.369Z,8788.00
2018-07-13T10:17:55.651Z,8680.00
2018-07-13T10:18:55.729Z,8516.00
2018-07-13T10:19:55.839Z,8480.00
2018-07-13T10:20:56.042Z,8452.00
2018-07-13T10:21:56.227Z,8456.00
2018-07-13T10:22:56.416Z,8400.00
2018-07-13T10:23:56.633Z,8356.00
2018-07-13T10:24:56.826Z,8148.00
2018-07-13T10:25:57.033Z,7956.00
2018-07-13T10:26:57.222Z,7708.00
2018-07-13T10:27:57.421Z,7568.00
2018-07-13T10:28:57.618Z,7464.00
2018-07-13T10:29:57.815Z,7184.00
2018-07-13T10:30:57.994Z,6820.00
2018-07-13T10:31:58.191Z,6532.00
2018-07-13T10:32:58.398Z,6328.00
2018-07-13T10:33:58.591Z,6136.00
2018-07-13T10:34:58.792Z,5892.00
2018-07-13T10:35:58.979Z,5700.00
2018-07-13T10:36:59.175Z,5524.00
2018-07-13T10:37:59.365Z,5476.00
2018-07-13T10:38:59.589Z,5524.00
2018-07-13T10:39:59.810Z,5596.00
2018-07-13T10:40:59.952Z,5736.00
2018-07-13T10:42:00.156Z,5908.00
2018-07-13T10:43:00.393Z,6088.00
2018-07-13T10:44:00.522Z,6088.00
2018-07-13T10:45:00.592Z,6092.00
2018-07-13T10:46:00.781Z,6028.00
2018-07-13T10:47:01.102Z,5992.00
2018-07-13T10:48:01.429Z,6048.00
2018-07-13T10:49:01.483Z,6196.00
2018-07-13T10:50:01.495Z,6312.00
2018-07-13T10:51:01.737Z,6264.00
2018-07-13T10:52:01.878Z,6260.00
2018-07-13T10:53:02.065Z,6452.00
2018-07-13T10:54:02.256Z,6312.00
2018-07-13T10:55:02.452Z,6116.00
2018-07-13T10:56:02.643Z,5916.00
2018-07-13T10:57:02.843Z,6004.00
2018-07-13T10:58:03.026Z,5944.00
2018-07-13T10:59:03.221Z,5704.00
2018-07-13T11:00:03.418Z,5612.00
2018-07-13T11:01:03.609Z,5456.00
2018-07-13T11:02:03.800Z,5572.00
2018-07-13T11:03:04.033Z,5836.00
2018-07-13T11:04:04.100Z,5900.00
2018-07-13T11:05:04.515Z,5988.00
2018-07-13T11:06:04.438Z,5820.00
2018-07-13T11:07:04.676Z,5644.00
2018-07-13T11:08:04.973Z,5748.00
2018-07-13T11:09:05.023Z,5848.00
2018-07-13T11:10:05.211Z,5784.00
2018-07-13T11:11:05.492Z,5848.00
2018-07-13T11:12:05.617Z,5880.00
2018-07-13T11:13:05.689Z,5568.00
2018-07-13T11:14:05.916Z,5068.00
2018-07-13T11:15:06.425Z,4836.00
2018-07-13T11:16:06.320Z,4688.00
2018-07-13T11:17:06.512Z,4688.00
2018-07-13T11:18:07.032Z,4728.00
2018-07-13T11:19:09.061Z,4848.00
2018-07-13T11:20:07.255Z,4984.00
2018-07-13T11:21:07.200Z,5216.00
2018-07-13T11:22:07.947Z,5528.00
2018-07-13T11:23:07.614Z,5648.00
2018-07-13T11:24:07.807Z,5736.00
2018-07-13T11:25:07.994Z,5808.00
2018-07-13T11:26:08.193Z,5788.00
2018-07-13T11:27:08.410Z,5640.00
2018-07-13T11:28:08.621Z,5552.00
2018-07-13T11:29:08.811Z,5448.00
2018-07-13T11:30:09.001Z,5328.00
2018-07-13T11:31:09.192Z,5252.00
2018-07-13T11:32:09.415Z,5312.00
2018-07-13T11:33:09.602Z,5356.00
2018-07-13T11:34:09.818Z,5436.00
2018-07-13T11:35:10.052Z,5500.00
2018-07-13T11:36:10.276Z,5388.00
2018-07-13T11:37:10.680Z,5292.00
2018-07-13T11:38:10.683Z,5280.00
2018-07-13T11:39:10.854Z,5268.00
2018-07-13T11:40:11.047Z,5252.00
2018-07-13T11:41:11.263Z,5252.00
2018-07-13T11:42:11.444Z,5400.00
2018-07-13T11:43:11.667Z,5700.00
2018-07-13T11:44:11.842Z,5880.00
2018-07-13T11:45:12.014Z,5976.00
2018-07-13T11:46:12.203Z,6040.00
2018-07-13T11:47:12.399Z,5928.00
2018-07-13T11:48:12.587Z,5884.00
2018-07-13T11:49:12.785Z,5832.00
2018-07-13T11:50:12.972Z,5748.00
2018-07-13T11:51:13.158Z,5716.00
2018-07-13T11:52:13.459Z,5448.00
2018-07-13T11:53:13.572Z,5180.00
2018-07-13T11:54:13.765Z,5108.00
2018-07-13T11:55:13.950Z,4592.00
2018-07-13T11:56:14.142Z,4404.00
2018-07-13T11:57:14.358Z,4480.00
2018-07-13T11:58:14.585Z,4424.00
2018-07-13T11:59:14.762Z,4416.00
2018-07-13T12:00:14.951Z,4396.00
2018-07-13T12:01:15.148Z,4724.00
2018-07-13T12:02:15.335Z,4364.00
2018-07-13T12:03:15.557Z,4212.00
2018-07-13T12:04:15.750Z,4296.00
2018-07-13T12:05:15.944Z,4292.00
2018-07-13T12:06:16.126Z,4264.00
2018-07-13T12:07:16.325Z,4236.00
2018-07-13T12:08:16.528Z,4272.00
2018-07-13T12:09:16.722Z,4160.00
2018-07-13T12:10:16.913Z,4188.00
2018-07-13T12:11:17.108Z,4404.00
2018-07-13T12:12:17.296Z,4416.00
2018-07-13T12:13:17.489Z,4396.00
2018-07-13T12:14:17.739Z,4500.00
2018-07-13T12:15:17.877Z,4772.00
2018-07-13T12:16:18.055Z,4648.00